Plum Grove, Texas
Current Conditions -  °F | °C
As of 3:35 PM on Friday 24 Oct 2014 (Local Time) from K6R3 Reporting Station
Clear Clear  
Wind Chill: 79°   Ceiling: Unl
Heat Index: 80°   Visibility: 10mi
Dew Point: 60°   Wind: 3mph
Humidity: 53%   Direction: 50°NE
Pressure: 30.1"   Gusts: NA
Location:  30.2945°N, 94.9711°W
Report Text: K6R3 242035Z AUTO 05003KT 10SM CLR 26/16 A3010 RMK AO2 T02600156
Loading
Personal Weather Stations






























Interactive Weather Map
Tropical Storm Tracking
New forecast layout! Learn more

10-Day Weather Forecast

Advertisements
Track Severe Weather on mobile